Time;durP1;ratioP1;P1;durP2;ratioP2;P2;SDS_P1;SDS_P2;PMS_P1;PMS_P2;Temp;Humidity;BMP_temperature;BMP_pressure;BME280_temperature;BME280_humidity;BME280_pressure;Samples;Min_cycle;Max_cycle;Signal;HPM_P1;HPM_P2
2022/01/07 00:01:47;;;;;;;0.68;0.20;;;;;;;;;;4182851;28;20060;-33
2022/01/07 00:03:48;;;;;;;0.82;0.30;;;;;;;;;;4182703;28;20420;-34
2022/01/07 00:05:49;;;;;;;0.52;0.20;;;;;;;;;;4198051;28;20489;-32
2022/01/07 00:07:50;;;;;;;0.30;0.17;;;;;;;;;;4197930;28;20041;-35
2022/01/07 00:09:51;;;;;;;0.55;0.20;;;;;;;;;;4199192;28;20049;-34
2022/01/07 00:11:52;;;;;;;0.20;0.15;;;;;;;;;;4199054;28;20047;-34
2022/01/07 00:13:53;;;;;;;0.17;0.17;;;;;;;;;;4199284;28;20052;-35
2022/01/07 00:15:54;;;;;;;0.47;0.20;;;;;;;;;;4199259;28;20102;-35
2022/01/07 00:17:56;;;;;;;0.15;0.10;;;;;;;;;;4197889;28;20386;-35
2022/01/07 00:19:57;;;;;;;0.10;0.10;;;;;;;;;;4199284;28;20052;-32
2022/01/07 00:21:57;;;;;;;0.65;0.20;;;;;;;;;;4198487;28;20428;-32
2022/01/07 00:23:58;;;;;;;0.17;0.10;;;;;;;;;;4199045;28;20554;-35
2022/01/07 00:25:59;;;;;;;0.40;0.30;;;;;;;;;;4198951;28;20095;-34
2022/01/07 00:28:00;;;;;;;0.30;0.10;;;;;;;;;;4198819;28;20134;-33
2022/01/07 00:30:02;;;;;;;0.28;0.15;;;;;;;;;;4198881;28;20048;-32
2022/01/07 00:32:03;;;;;;;0.20;0.20;;;;;;;;;;4197370;28;20098;-34
2022/01/07 00:34:04;;;;;;;0.70;0.28;;;;;;;;;;4198952;28;20139;-36
2022/01/07 00:36:05;;;;;;;0.20;0.10;;;;;;;;;;4199040;28;20549;-33
2022/01/07 00:38:06;;;;;;;0.40;0.20;;;;;;;;;;4196975;28;20049;-34
2022/01/07 00:40:08;;;;;;;0.35;0.17;;;;;;;;;;4196728;28;20095;-32
2022/01/07 00:42:09;;;;;;;0.15;0.13;;;;;;;;;;4198374;28;20048;-35
2022/01/07 00:44:10;;;;;;;0.20;0.20;;;;;;;;;;4198461;28;20102;-34
2022/01/07 00:46:11;;;;;;;0.20;0.20;;;;;;;;;;4198582;28;20091;-34
2022/01/07 00:48:12;;;;;;;0.15;0.15;;;;;;;;;;4198600;28;20163;-34
2022/01/07 00:50:14;;;;;;;0.77;0.35;;;;;;;;;;4198749;28;20049;-33
2022/01/07 00:52:15;;;;;;;0.20;0.20;;;;;;;;;;4197930;28;20052;-32
2022/01/07 00:54:16;;;;;;;0.10;0.10;;;;;;;;;;4198351;28;20044;-33
2022/01/07 00:56:18;;;;;;;0.10;0.10;;;;;;;;;;4198355;28;20386;-32
2022/01/07 00:58:19;;;;;;;0.65;0.32;;;;;;;;;;4183679;28;20049;-32
2022/01/07 01:00:21;;;;;;;0.10;0.10;;;;;;;;;;4181805;28;20076;-33
2022/01/07 01:02:22;;;;;;;0.40;0.20;;;;;;;;;;4181613;28;20049;-32
2022/01/07 01:04:23;;;;;;;0.40;0.20;;;;;;;;;;4181836;28;20048;-32
2022/01/07 01:06:24;;;;;;;0.52;0.30;;;;;;;;;;4181896;28;20049;-33
2022/01/07 01:08:26;;;;;;;0.22;0.22;;;;;;;;;;4181061;28;20056;-32
2022/01/07 01:10:27;;;;;;;0.20;0.20;;;;;;;;;;4181786;28;20114;-33
2022/01/07 01:12:28;;;;;;;0.15;0.15;;;;;;;;;;4181467;28;20057;-34
2022/01/07 01:14:29;;;;;;;0.17;0.15;;;;;;;;;;4181574;28;20111;-34
2022/01/07 01:16:31;;;;;;;0.10;0.10;;;;;;;;;;4194520;28;20044;-38
2022/01/07 01:18:32;;;;;;;0.20;0.10;;;;;;;;;;4184785;28;20045;-32
2022/01/07 01:20:33;;;;;;;0.22;0.20;;;;;;;;;;4181433;28;20049;-32
2022/01/07 01:22:34;;;;;;;0.30;0.20;;;;;;;;;;4187632;28;20102;-34
2022/01/07 01:24:35;;;;;;;0.28;0.10;;;;;;;;;;4196273;28;20114;-37
2022/01/07 01:26:36;;;;;;;0.10;0.10;;;;;;;;;;4181217;28;20102;-31
2022/01/07 01:28:37;;;;;;;0.30;0.20;;;;;;;;;;4197096;28;20095;-34
2022/01/07 01:30:38;;;;;;;0.10;0.10;;;;;;;;;;4197823;28;20488;-35
2022/01/07 01:32:39;;;;;;;0.08;0.08;;;;;;;;;;4197870;28;20045;-32
2022/01/07 01:34:40;;;;;;;0.40;0.20;;;;;;;;;;4197798;28;20048;-32
2022/01/07 01:36:41;;;;;;;0.30;0.10;;;;;;;;;;4197371;28;20055;-34
2022/01/07 01:38:42;;;;;;;0.25;0.22;;;;;;;;;;4197472;28;20052;-35
2022/01/07 01:40:43;;;;;;;0.60;0.45;;;;;;;;;;4197710;28;20049;-32
2022/01/07 01:42:46;;;;;;;0.20;0.20;;;;;;;;;;4197510;28;20048;-34
2022/01/07 01:44:47;;;;;;;0.50;0.20;;;;;;;;;;4196794;28;20386;-34
2022/01/07 01:46:47;;;;;;;0.10;0.10;;;;;;;;;;4197427;28;20087;-36
2022/01/07 01:48:49;;;;;;;0.30;0.20;;;;;;;;;;4197731;28;20373;-34
2022/01/07 01:50:55;;;;;;;0.20;0.20;;;;;;;;;;4197513;28;20048;-34
2022/01/07 01:52:56;;;;;;;0.43;0.30;;;;;;;;;;4197052;28;20378;-33
2022/01/07 01:54:57;;;;;;;0.40;0.20;;;;;;;;;;4197330;28;20056;-32
2022/01/07 01:56:59;;;;;;;0.60;0.30;;;;;;;;;;4197348;28;20508;-34
2022/01/07 01:59:00;;;;;;;0.40;0.20;;;;;;;;;;4196259;28;20052;-34
2022/01/07 02:01:01;;;;;;;0.20;0.20;;;;;;;;;;4197345;28;20048;-32
2022/01/07 02:03:02;;;;;;;0.20;0.10;;;;;;;;;;4197523;28;20102;-36
2022/01/07 02:05:03;;;;;;;0.30;0.30;;;;;;;;;;4197371;28;20045;-33
2022/01/07 02:07:08;;;;;;;0.52;0.10;;;;;;;;;;4196217;28;20048;-34
2022/01/07 02:09:09;;;;;;;0.30;0.20;;;;;;;;;;4197502;28;20048;-38
2022/01/07 02:11:10;;;;;;;0.30;0.20;;;;;;;;;;4197646;28;20169;-34
2022/01/07 02:13:10;;;;;;;0.13;0.13;;;;;;;;;;4197392;28;20107;-37
2022/01/07 02:15:12;;;;;;;0.35;0.20;;;;;;;;;;4197289;28;20048;-35
2022/01/07 02:17:13;;;;;;;0.20;0.20;;;;;;;;;;4197188;28;20048;-34
2022/01/07 02:19:14;;;;;;;0.10;0.10;;;;;;;;;;4197248;28;20105;-32
2022/01/07 02:21:15;;;;;;;0.25;0.10;;;;;;;;;;4197235;28;20063;-33
2022/01/07 02:23:18;;;;;;;0.68;0.30;;;;;;;;;;4196465;28;20056;-35
2022/01/07 02:25:20;;;;;;;0.98;0.30;;;;;;;;;;4197396;28;20070;-35
2022/01/07 02:27:22;;;;;;;0.40;0.22;;;;;;;;;;4195895;28;20044;-34
2022/01/07 02:29:23;;;;;;;0.73;0.20;;;;;;;;;;4196167;28;20094;-33
2022/01/07 02:31:24;;;;;;;0.47;0.20;;;;;;;;;;4197102;28;20044;-33
2022/01/07 02:33:25;;;;;;;0.50;0.20;;;;;;;;;;4196995;28;20479;-32
2022/01/07 02:35:27;;;;;;;0.47;0.20;;;;;;;;;;4197068;28;20078;-33
2022/01/07 02:37:28;;;;;;;0.17;0.15;;;;;;;;;;4196919;28;20052;-34
2022/01/07 02:39:29;;;;;;;0.17;0.13;;;;;;;;;;4197217;28;20131;-33
2022/01/07 02:41:31;;;;;;;0.50;0.20;;;;;;;;;;4197273;28;20056;-36
2022/01/07 02:43:32;;;;;;;0.82;0.40;;;;;;;;;;4196888;28;20060;-35
2022/01/07 02:45:33;;;;;;;0.35;0.32;;;;;;;;;;4195695;28;20174;-34
2022/01/07 02:47:52;;;;;;;0.10;0.10;;;;;;;;;;4196883;28;20048;-33
2022/01/07 02:49:53;;;;;;;0.20;0.20;;;;;;;;;;4197028;28;20052;-37
2022/01/07 02:51:54;;;;;;;0.38;0.20;;;;;;;;;;4196329;28;20095;-32
2022/01/07 02:53:55;;;;;;;0.90;0.30;;;;;;;;;;4196972;28;20115;-32
2022/01/07 02:55:56;;;;;;;0.20;0.10;;;;;;;;;;4198164;28;20139;-34
2022/01/07 02:57:57;;;;;;;0.10;0.10;;;;;;;;;;4200145;28;20436;-37
2022/01/07 02:59:58;;;;;;;0.15;0.15;;;;;;;;;;4200248;28;20052;-32
2022/01/07 03:01:59;;;;;;;0.30;0.20;;;;;;;;;;4200122;28;20059;-37
2022/01/07 03:04:00;;;;;;;0.20;0.17;;;;;;;;;;4200223;28;20408;-33
2022/01/07 03:06:01;;;;;;;0.10;0.10;;;;;;;;;;4200259;28;20045;-32
2022/01/07 03:08:02;;;;;;;0.32;0.20;;;;;;;;;;4199595;28;20106;-32
2022/01/07 03:10:04;;;;;;;0.17;0.13;;;;;;;;;;4200140;28;20048;-32
2022/01/07 03:12:05;;;;;;;0.40;0.10;;;;;;;;;;4199949;28;20090;-37
2022/01/07 03:14:06;;;;;;;0.77;0.30;;;;;;;;;;4200079;28;20373;-32
2022/01/07 03:16:07;;;;;;;0.20;0.10;;;;;;;;;;4200035;28;20056;-32
2022/01/07 03:18:09;;;;;;;0.30;0.20;;;;;;;;;;4199643;28;20048;-32
2022/01/07 03:20:15;;;;;;;0.20;0.10;;;;;;;;;;4200405;28;20078;-33
2022/01/07 03:22:16;;;;;;;0.32;0.30;;;;;;;;;;4199011;28;20052;-33
2022/01/07 03:24:16;;;;;;;0.68;0.30;;;;;;;;;;4198647;28;20134;-33
2022/01/07 03:26:17;;;;;;;0.22;0.20;;;;;;;;;;4200261;28;20086;-33
2022/01/07 03:28:19;;;;;;;0.35;0.30;;;;;;;;;;4199821;28;20118;-32
2022/01/07 03:30:20;;;;;;;0.15;0.10;;;;;;;;;;4200034;28;20117;-34
2022/01/07 03:32:21;;;;;;;0.40;0.20;;;;;;;;;;4199794;28;20479;-33
2022/01/07 03:34:22;;;;;;;0.20;0.20;;;;;;;;;;4198405;28;20079;-32
2022/01/07 03:36:23;;;;;;;0.10;0.10;;;;;;;;;;4199545;28;20170;-32
2022/01/07 03:38:24;;;;;;;0.38;0.15;;;;;;;;;;4199131;28;20099;-32
2022/01/07 03:40:24;;;;;;;0.20;0.20;;;;;;;;;;4199760;28;20098;-35
2022/01/07 03:42:25;;;;;;;0.10;0.10;;;;;;;;;;4199675;28;20103;-36
2022/01/07 03:44:26;;;;;;;0.10;0.10;;;;;;;;;;4199502;28;20094;-35
2022/01/07 03:46:27;;;;;;;0.15;0.15;;;;;;;;;;4199731;28;20093;-33
2022/01/07 03:48:28;;;;;;;0.30;0.20;;;;;;;;;;4198082;28;20107;-35
2022/01/07 03:50:29;;;;;;;0.20;0.20;;;;;;;;;;4199354;28;20089;-32
2022/01/07 03:52:30;;;;;;;0.35;0.20;;;;;;;;;;4198902;28;20056;-35
2022/01/07 03:54:31;;;;;;;0.25;0.10;;;;;;;;;;4190391;28;21721;-35
2022/01/07 03:56:33;;;;;;;0.20;0.10;;;;;;;;;;4198166;28;20170;-36
2022/01/07 03:58:34;;;;;;;0.10;0.10;;;;;;;;;;4182873;28;20397;-31
2022/01/07 04:00:36;;;;;;;0.20;0.10;;;;;;;;;;4182831;28;20085;-34
2022/01/07 04:02:38;;;;;;;0.30;0.20;;;;;;;;;;4182649;28;20103;-32
2022/01/07 04:04:39;;;;;;;0.20;0.10;;;;;;;;;;4182571;28;20115;-35
2022/01/07 04:06:40;;;;;;;0.32;0.20;;;;;;;;;;4182559;28;20158;-35
2022/01/07 04:08:41;;;;;;;0.10;0.10;;;;;;;;;;4182288;28;20481;-31
2022/01/07 04:10:42;;;;;;;0.80;0.30;;;;;;;;;;4182961;28;20535;-34
2022/01/07 04:12:43;;;;;;;0.10;0.10;;;;;;;;;;4182443;28;20053;-33
2022/01/07 04:14:44;;;;;;;0.10;0.10;;;;;;;;;;4182518;28;20393;-33
2022/01/07 04:16:45;;;;;;;0.20;0.13;;;;;;;;;;4182287;28;20098;-34
2022/01/07 04:18:46;;;;;;;0.60;0.30;;;;;;;;;;4182646;28;20071;-35
2022/01/07 04:20:46;;;;;;;0.32;0.20;;;;;;;;;;4182747;28;20121;-33
2022/01/07 04:22:47;;;;;;;0.20;0.20;;;;;;;;;;4181906;28;20542;-33
2022/01/07 04:24:48;;;;;;;0.10;0.10;;;;;;;;;;4182332;28;20172;-33
2022/01/07 04:26:49;;;;;;;0.40;0.20;;;;;;;;;;4182419;28;20086;-35
2022/01/07 04:28:50;;;;;;;0.10;0.10;;;;;;;;;;4180968;28;20049;-33
2022/01/07 04:30:51;;;;;;;0.20;0.20;;;;;;;;;;4182282;28;20126;-33
2022/01/07 04:32:54;;;;;;;0.13;0.13;;;;;;;;;;4181109;28;20106;-33
2022/01/07 04:34:55;;;;;;;0.20;0.10;;;;;;;;;;4182185;28;20053;-32
2022/01/07 04:36:55;;;;;;;0.20;0.10;;;;;;;;;;4181690;28;20091;-34
2022/01/07 04:38:56;;;;;;;0.32;0.20;;;;;;;;;;4182204;28;20182;-33
2022/01/07 04:40:57;;;;;;;0.20;0.20;;;;;;;;;;4182385;28;20063;-34
2022/01/07 04:42:59;;;;;;;0.38;0.20;;;;;;;;;;4181945;28;20396;-33
2022/01/07 04:45:00;;;;;;;0.17;0.17;;;;;;;;;;4181924;28;20489;-34
2022/01/07 04:47:01;;;;;;;0.35;0.20;;;;;;;;;;4180652;28;20421;-32
2022/01/07 04:49:02;;;;;;;0.63;0.20;;;;;;;;;;4181887;28;20091;-35
2022/01/07 04:51:04;;;;;;;0.20;0.10;;;;;;;;;;4181934;28;20478;-34
2022/01/07 04:53:05;;;;;;;0.38;0.20;;;;;;;;;;4181460;28;20048;-33
2022/01/07 04:55:07;;;;;;;0.40;0.20;;;;;;;;;;4181840;28;20053;-32
2022/01/07 04:57:08;;;;;;;0.10;0.10;;;;;;;;;;4164365;28;20057;-32
2022/01/07 04:59:09;;;;;;;0.20;0.20;;;;;;;;;;4181878;28;20455;-35
2022/01/07 05:01:09;;;;;;;0.10;0.10;;;;;;;;;;4181961;28;20053;-38
2022/01/07 05:03:11;;;;;;;0.10;0.10;;;;;;;;;;4181579;28;20121;-32
2022/01/07 05:05:12;;;;;;;0.17;0.10;;;;;;;;;;4181740;28;20477;-36
2022/01/07 05:07:13;;;;;;;0.25;0.20;;;;;;;;;;4181506;28;20049;-33
2022/01/07 05:09:16;;;;;;;0.30;0.10;;;;;;;;;;4181817;28;20045;-35
2022/01/07 05:11:17;;;;;;;0.25;0.13;;;;;;;;;;4181748;28;20459;-35
2022/01/07 05:13:18;;;;;;;0.10;0.10;;;;;;;;;;4181862;28;20099;-36
2022/01/07 05:15:19;;;;;;;0.30;0.10;;;;;;;;;;4180383;28;20098;-36
2022/01/07 05:17:20;;;;;;;0.10;0.10;;;;;;;;;;4181567;28;20056;-36
2022/01/07 05:19:21;;;;;;;0.38;0.20;;;;;;;;;;4181508;28;20397;-34
2022/01/07 05:21:21;;;;;;;0.10;0.10;;;;;;;;;;4181432;28;20099;-32
2022/01/07 05:23:23;;;;;;;0.10;0.10;;;;;;;;;;4180848;28;20056;-35
2022/01/07 05:25:25;;;;;;;0.15;0.10;;;;;;;;;;4181464;28;20113;-35
2022/01/07 05:27:26;;;;;;;0.20;0.20;;;;;;;;;;4180148;28;20041;-35
2022/01/07 05:29:28;;;;;;;0.10;0.10;;;;;;;;;;4181498;28;20095;-38
2022/01/07 05:31:29;;;;;;;0.20;0.20;;;;;;;;;;4181310;28;20045;-37
2022/01/07 05:33:30;;;;;;;0.73;0.45;;;;;;;;;;4181263;28;20087;-33
2022/01/07 05:35:31;;;;;;;0.10;0.10;;;;;;;;;;4181278;28;20111;-34
2022/01/07 05:37:33;;;;;;;0.10;0.10;;;;;;;;;;4180674;28;20430;-32
2022/01/07 05:39:33;;;;;;;0.20;0.20;;;;;;;;;;4181098;28;20052;-36
2022/01/07 05:41:35;;;;;;;0.20;0.20;;;;;;;;;;4181227;28;20443;-38
2022/01/07 05:43:35;;;;;;;0.10;0.10;;;;;;;;;;4181022;28;20132;-36
2022/01/07 05:45:36;;;;;;;0.10;0.10;;;;;;;;;;4181330;28;20099;-34
2022/01/07 05:47:37;;;;;;;0.57;0.20;;;;;;;;;;4181138;28;20090;-33
2022/01/07 05:49:38;;;;;;;0.20;0.10;;;;;;;;;;4181216;28;20114;-32
2022/01/07 05:51:41;;;;;;;0.70;0.20;;;;;;;;;;4181129;28;20099;-38
2022/01/07 05:53:42;;;;;;;0.40;0.20;;;;;;;;;;4180740;28;20053;-32
2022/01/07 05:55:43;;;;;;;0.13;0.10;;;;;;;;;;4180961;28;20098;-33
2022/01/07 05:57:44;;;;;;;0.15;0.10;;;;;;;;;;4180906;28;20456;-36
2022/01/07 05:59:45;;;;;;;0.20;0.10;;;;;;;;;;4181261;28;20061;-32
2022/01/07 06:01:46;;;;;;;1.75;0.10;;;;;;;;;;4180819;28;20049;-31
2022/01/07 06:03:47;;;;;;;0.30;0.25;;;;;;;;;;4180984;28;20194;-32
2022/01/07 06:05:48;;;;;;;0.10;0.10;;;;;;;;;;4180830;28;20142;-33
2022/01/07 06:07:49;;;;;;;0.10;0.10;;;;;;;;;;4180451;28;20057;-32
2022/01/07 06:09:51;;;;;;;0.20;0.20;;;;;;;;;;4180929;28;20088;-32
2022/01/07 06:11:52;;;;;;;0.20;0.10;;;;;;;;;;4180885;28;20045;-36
2022/01/07 06:13:53;;;;;;;0.10;0.10;;;;;;;;;;4181081;28;20136;-34
2022/01/07 06:15:53;;;;;;;0.15;0.10;;;;;;;;;;4180673;28;20088;-33
2022/01/07 06:17:54;;;;;;;0.10;0.10;;;;;;;;;;4180562;28;20091;-31
2022/01/07 06:19:55;;;;;;;0.35;0.20;;;;;;;;;;4180820;28;20110;-33
2022/01/07 06:21:56;;;;;;;0.20;0.20;;;;;;;;;;4179835;28;20057;-33
2022/01/07 06:23:57;;;;;;;0.25;0.10;;;;;;;;;;4185736;28;20111;-35
2022/01/07 06:25:58;;;;;;;0.30;0.10;;;;;;;;;;4192092;28;20463;-33
2022/01/07 06:27:59;;;;;;;0.30;0.15;;;;;;;;;;4196366;28;20553;-34
2022/01/07 06:30:00;;;;;;;0.13;0.10;;;;;;;;;;4196386;28;20070;-33
2022/01/07 06:32:01;;;;;;;0.20;0.10;;;;;;;;;;4194140;28;20052;-32
2022/01/07 06:34:02;;;;;;;0.20;0.20;;;;;;;;;;4187357;28;20052;-33
2022/01/07 06:36:03;;;;;;;0.10;0.10;;;;;;;;;;4193283;28;20049;-34
2022/01/07 06:38:04;;;;;;;0.73;0.20;;;;;;;;;;4191512;28;20056;-34
2022/01/07 06:40:06;;;;;;;0.28;0.10;;;;;;;;;;4186532;28;20124;-32
2022/01/07 06:42:07;;;;;;;0.20;0.20;;;;;;;;;;4179326;28;20052;-35
2022/01/07 06:44:08;;;;;;;0.20;0.20;;;;;;;;;;4180403;28;20061;-32
2022/01/07 06:46:09;;;;;;;0.20;0.10;;;;;;;;;;4189172;28;20167;-35
2022/01/07 06:48:10;;;;;;;0.10;0.10;;;;;;;;;;4184557;28;20443;-33
2022/01/07 06:50:12;;;;;;;0.10;0.10;;;;;;;;;;4190162;28;20041;-36
2022/01/07 06:52:13;;;;;;;0.10;0.10;;;;;;;;;;4196621;28;20044;-33
2022/01/07 06:54:14;;;;;;;0.10;0.10;;;;;;;;;;4197104;28;20094;-34
2022/01/07 06:56:15;;;;;;;0.03;0.03;;;;;;;;;;4196822;28;20091;-35
2022/01/07 06:58:15;;;;;;;0.25;0.25;;;;;;;;;;4196581;28;20095;-32
2022/01/07 07:00:17;;;;;;;0.22;0.15;;;;;;;;;;4182779;28;20060;-32
2022/01/07 07:02:18;;;;;;;0.50;0.20;;;;;;;;;;4187718;28;20060;-34
2022/01/07 07:04:19;;;;;;;1.42;0.17;;;;;;;;;;4182344;28;20048;-35
2022/01/07 07:06:20;;;;;;;0.40;0.20;;;;;;;;;;4180167;28;20049;-32
2022/01/07 07:08:21;;;;;;;0.20;0.17;;;;;;;;;;4183905;28;20068;-32
2022/01/07 07:10:22;;;;;;;0.47;0.20;;;;;;;;;;4180051;28;20087;-35
2022/01/07 07:12:23;;;;;;;0.35;0.30;;;;;;;;;;4182780;28;20087;-32
2022/01/07 07:14:24;;;;;;;1.73;0.20;;;;;;;;;;4188874;28;20439;-33
2022/01/07 07:16:25;;;;;;;0.20;0.20;;;;;;;;;;4195259;28;20053;-33
2022/01/07 07:18:26;;;;;;;0.45;0.20;;;;;;;;;;4195355;28;20105;-34
2022/01/07 07:20:27;;;;;;;0.10;0.10;;;;;;;;;;4179024;28;20049;-33
2022/01/07 07:22:28;;;;;;;0.10;0.10;;;;;;;;;;4179249;28;20488;-36
2022/01/07 07:24:29;;;;;;;1.33;0.10;;;;;;;;;;4179336;28;20053;-35
2022/01/07 07:26:30;;;;;;;0.10;0.10;;;;;;;;;;4179836;28;20495;-35
2022/01/07 07:28:31;;;;;;;0.50;0.20;;;;;;;;;;4179661;28;20045;-33
2022/01/07 07:30:38;;;;;;;0.73;0.10;;;;;;;;;;4179487;28;20077;-34
2022/01/07 07:32:39;;;;;;;0.30;0.10;;;;;;;;;;4179451;28;20102;-35
2022/01/07 07:36:41;;;;;;;0.13;0.13;;;;;;;;;;4179341;28;20118;-35
2022/01/07 07:38:42;;;;;;;0.20;0.10;;;;;;;;;;4179662;28;20055;-34
2022/01/07 07:40:43;;;;;;;0.10;0.10;;;;;;;;;;4179613;28;20045;-32
2022/01/07 07:42:44;;;;;;;0.35;0.20;;;;;;;;;;4180230;28;20436;-32
2022/01/07 07:44:51;;;;;;;0.10;0.10;;;;;;;;;;4181347;28;20057;-36
2022/01/07 07:46:52;;;;;;;0.20;0.10;;;;;;;;;;4181401;28;20087;-39
2022/01/07 07:48:54;;;;;;;0.50;0.25;;;;;;;;;;4182496;28;20096;-32
2022/01/07 07:50:55;;;;;;;0.57;0.20;;;;;;;;;;4182562;28;20049;-33
2022/01/07 07:52:56;;;;;;;0.50;0.20;;;;;;;;;;4181680;28;20107;-32
2022/01/07 07:54:57;;;;;;;0.50;0.22;;;;;;;;;;4194920;28;20120;-32
2022/01/07 07:56:59;;;;;;;0.82;0.20;;;;;;;;;;4196977;28;20633;-33
2022/01/07 07:59:00;;;;;;;0.20;0.20;;;;;;;;;;4197271;28;20052;-35
2022/01/07 08:01:01;;;;;;;0.20;0.20;;;;;;;;;;4197116;28;20082;-35
2022/01/07 08:03:02;;;;;;;0.30;0.20;;;;;;;;;;4197163;28;20074;-34
2022/01/07 08:05:03;;;;;;;0.40;0.40;;;;;;;;;;4196935;28;20468;-35
2022/01/07 08:07:04;;;;;;;0.40;0.30;;;;;;;;;;4196472;28;20064;-39
2022/01/07 08:09:05;;;;;;;0.32;0.30;;;;;;;;;;4197237;28;20049;-35
2022/01/07 08:11:09;;;;;;;0.17;0.10;;;;;;;;;;4186775;28;20049;-32
2022/01/07 08:17:31;;;;;;;0.30;0.20;;;;;;;;;;4181916;28;20053;-34
2022/01/07 08:19:32;;;;;;;0.60;0.30;;;;;;;;;;4188485;28;20106;-36
2022/01/07 08:21:33;;;;;;;0.60;0.30;;;;;;;;;;4189622;28;20073;-32
2022/01/07 08:23:35;;;;;;;0.47;0.25;;;;;;;;;;4193742;28;20060;-35
2022/01/07 08:25:36;;;;;;;0.60;0.22;;;;;;;;;;4198196;28;20511;-33
2022/01/07 08:27:37;;;;;;;0.20;0.20;;;;;;;;;;4186866;28;20189;-33
2022/01/07 08:29:41;;;;;;;0.50;0.30;;;;;;;;;;4198731;28;20052;-33
2022/01/07 08:36:03;;;;;;;0.20;0.20;;;;;;;;;;4198415;28;20052;-32
2022/01/07 08:38:05;;;;;;;0.93;0.40;;;;;;;;;;4198000;28;20079;-33
2022/01/07 08:40:06;;;;;;;0.47;0.40;;;;;;;;;;4198294;28;20097;-32
2022/01/07 08:42:07;;;;;;;0.68;0.30;;;;;;;;;;4198242;28;20428;-34
2022/01/07 08:44:08;;;;;;;1.25;0.45;;;;;;;;;;4198205;28;20056;-36
2022/01/07 08:46:10;;;;;;;0.32;0.30;;;;;;;;;;4198337;28;20048;-34
2022/01/07 08:48:11;;;;;;;0.50;0.22;;;;;;;;;;4198255;28;20049;-33
2022/01/07 08:50:12;;;;;;;0.45;0.32;;;;;;;;;;4197363;28;20044;-32
2022/01/07 08:52:14;;;;;;;0.60;0.35;;;;;;;;;;4196048;28;20523;-36
2022/01/07 08:54:15;;;;;;;0.70;0.32;;;;;;;;;;4197634;28;20090;-32
2022/01/07 08:56:16;;;;;;;1.60;0.32;;;;;;;;;;4198170;28;20060;-36
2022/01/07 08:58:17;;;;;;;0.47;0.40;;;;;;;;;;4198046;28;20109;-34
2022/01/07 09:00:18;;;;;;;0.40;0.30;;;;;;;;;;4196665;28;20056;-35
2022/01/07 09:02:19;;;;;;;0.70;0.38;;;;;;;;;;4192122;28;20497;-34
2022/01/07 09:04:20;;;;;;;0.30;0.30;;;;;;;;;;4182419;28;20365;-35
2022/01/07 09:06:21;;;;;;;0.30;0.22;;;;;;;;;;4192253;28;20055;-33
2022/01/07 09:08:22;;;;;;;0.45;0.30;;;;;;;;;;4185248;28;20053;-33
2022/01/07 09:10:23;;;;;;;3.45;0.30;;;;;;;;;;4185137;28;20080;-35
2022/01/07 09:12:24;;;;;;;0.90;0.50;;;;;;;;;;4185752;28;20044;-35
2022/01/07 09:14:25;;;;;;;3.55;0.40;;;;;;;;;;4189839;28;20113;-34
2022/01/07 09:16:26;;;;;;;11.70;1.42;;;;;;;;;;4193382;28;20062;-33
2022/01/07 09:18:28;;;;;;;6.57;1.50;;;;;;;;;;4181004;28;20052;-37
2022/01/07 09:20:29;;;;;;;5.65;1.42;;;;;;;;;;4192270;28;20044;-36
2022/01/07 09:22:29;;;;;;;8.02;1.33;;;;;;;;;;4188622;28;20051;-33
2022/01/07 09:24:30;;;;;;;4.65;0.98;;;;;;;;;;4183376;28;20091;-33
2022/01/07 09:26:31;;;;;;;9.65;1.48;;;;;;;;;;4190182;28;20049;-33
2022/01/07 09:28:32;;;;;;;7.78;1.50;;;;;;;;;;4194238;28;20095;-34
2022/01/07 09:30:34;;;;;;;1.90;0.90;;;;;;;;;;4178316;28;20044;-32
2022/01/07 09:32:35;;;;;;;4.30;0.95;;;;;;;;;;4184362;28;20044;-35
2022/01/07 09:34:36;;;;;;;6.07;1.30;;;;;;;;;;4183905;28;20045;-34
2022/01/07 09:36:37;;;;;;;5.10;0.93;;;;;;;;;;4197516;28;20209;-34
2022/01/07 09:38:38;;;;;;;6.93;1.20;;;;;;;;;;4196998;28;20048;-35
2022/01/07 09:40:39;;;;;;;13.35;2.60;;;;;;;;;;4191017;28;20163;-38
2022/01/07 09:43:01;;;;;;;8.43;1.98;;;;;;;;;;4192775;28;20056;-32
2022/01/07 09:45:02;;;;;;;9.98;1.80;;;;;;;;;;4182899;28;20122;-37
2022/01/07 09:47:03;;;;;;;13.93;2.55;;;;;;;;;;4185342;28;20125;-33
2022/01/07 09:49:04;;;;;;;9.82;2.13;;;;;;;;;;4189805;28;20044;-33
2022/01/07 09:51:05;;;;;;;5.50;1.88;;;;;;;;;;4193189;28;20048;-32
2022/01/07 09:53:08;;;;;;;6.05;1.83;;;;;;;;;;4186797;28;20103;-32
2022/01/07 09:55:09;;;;;;;11.40;2.47;;;;;;;;;;4192107;28;20052;-35
2022/01/07 09:57:10;;;;;;;15.80;2.78;;;;;;;;;;4192129;28;20044;-32
2022/01/07 09:59:11;;;;;;;9.88;2.50;;;;;;;;;;4187843;28;20094;-33
2022/01/07 10:01:19;;;;;;;9.73;2.30;;;;;;;;;;4187609;28;20390;-34
2022/01/07 10:03:20;;;;;;;7.07;2.08;;;;;;;;;;4182711;28;20045;-32
2022/01/07 10:05:22;;;;;;;9.45;1.90;;;;;;;;;;4179769;28;20141;-32
2022/01/07 10:07:24;;;;;;;9.70;2.22;;;;;;;;;;4181997;28;20067;-34
2022/01/07 10:09:25;;;;;;;11.68;1.95;;;;;;;;;;4191046;28;20045;-32
2022/01/07 10:11:26;;;;;;;6.50;2.03;;;;;;;;;;4190401;28;20058;-34
2022/01/07 10:13:27;;;;;;;6.57;1.83;;;;;;;;;;4187821;28;20442;-33
2022/01/07 10:15:30;;;;;;;10.15;1.98;;;;;;;;;;4192726;28;20143;-36
2022/01/07 10:17:31;;;;;;;7.72;1.40;;;;;;;;;;4194977;28;20059;-32
2022/01/07 10:19:37;;;;;;;6.35;1.80;;;;;;;;;;4192864;28;20111;-32
2022/01/07 10:21:38;;;;;;;5.03;1.58;;;;;;;;;;4189432;28;20048;-36
2022/01/07 10:23:39;;;;;;;6.88;1.55;;;;;;;;;;4184960;28;20118;-34
2022/01/07 10:25:43;;;;;;;3.42;1.27;;;;;;;;;;4193459;28;20054;-32
2022/01/07 10:27:44;;;;;;;2.67;0.98;;;;;;;;;;4192256;28;20048;-33
2022/01/07 10:29:45;;;;;;;3.78;1.08;;;;;;;;;;4181588;28;20504;-32
2022/01/07 10:31:46;;;;;;;3.65;0.88;;;;;;;;;;4191993;28;20044;-33
2022/01/07 10:33:49;;;;;;;2.03;0.77;;;;;;;;;;4193986;28;20059;-35
2022/01/07 10:35:51;;;;;;;2.35;0.90;;;;;;;;;;4196983;28;20059;-32
2022/01/07 10:38:02;;;;;;;4.13;0.98;;;;;;;;;;4187005;28;20052;-34
2022/01/07 10:40:18;;;;;;;2.17;0.60;;;;;;;;;;4194266;28;20044;-32
2022/01/07 10:42:23;;;;;;;2.42;0.95;;;;;;;;;;4190641;28;20048;-40
2022/01/07 10:44:24;;;;;;;1.88;0.80;;;;;;;;;;4181154;28;20056;-32
2022/01/07 10:46:27;;;;;;;3.05;0.70;;;;;;;;;;4180020;28;20096;-32
2022/01/07 10:48:43;;;;;;;2.85;0.82;;;;;;;;;;4180188;28;20087;-32
2022/01/07 10:50:45;;;;;;;2.20;0.60;;;;;;;;;;4196673;28;20052;-32
2022/01/07 10:52:46;;;;;;;3.25;1.20;;;;;;;;;;4188973;28;20052;-33
2022/01/07 10:55:06;;;;;;;1.83;0.68;;;;;;;;;;4195917;28;20048;-38
2022/01/07 10:57:09;;;;;;;1.95;0.60;;;;;;;;;;4195154;28;20052;-33
2022/01/07 10:59:11;;;;;;;5.05;0.82;;;;;;;;;;4196650;28;20056;-36
2022/01/07 11:01:18;;;;;;;2.30;0.85;;;;;;;;;;4193070;28;20067;-32
2022/01/07 11:03:20;;;;;;;8.55;1.60;;;;;;;;;;4194332;28;20056;-32
2022/01/07 11:05:21;;;;;;;1.48;0.70;;;;;;;;;;4196378;28;20489;-34
2022/01/07 11:07:22;;;;;;;2.38;0.77;;;;;;;;;;4195790;28;20044;-34
2022/01/07 11:09:23;;;;;;;2.42;0.75;;;;;;;;;;4192586;28;20090;-33
2022/01/07 11:11:26;;;;;;;2.55;0.90;;;;;;;;;;4191207;28;20398;-33
2022/01/07 11:13:26;;;;;;;2.83;1.00;;;;;;;;;;4186859;28;20053;-33
2022/01/07 11:15:27;;;;;;;2.17;0.68;;;;;;;;;;4192068;28;20446;-35
2022/01/07 11:17:29;;;;;;;3.53;1.30;;;;;;;;;;4196381;28;20078;-34
2022/01/07 11:19:35;;;;;;;3.30;0.85;;;;;;;;;;4183133;28;20048;-34
2022/01/07 11:21:36;;;;;;;2.33;0.73;;;;;;;;;;4183157;28;20122;-32
2022/01/07 11:23:38;;;;;;;2.00;1.25;;;;;;;;;;4188288;28;20454;-32
2022/01/07 11:25:39;;;;;;;1.83;0.85;;;;;;;;;;4199669;28;20049;-35
2022/01/07 11:27:48;;;;;;;1.92;0.80;;;;;;;;;;4198444;28;20136;-38
2022/01/07 11:30:04;;;;;;;3.38;1.20;;;;;;;;;;4198308;28;20052;-35
2022/01/07 11:32:24;;;;;;;7.80;1.13;;;;;;;;;;4196929;28;20045;-33
2022/01/07 11:34:25;;;;;;;2.53;1.02;;;;;;;;;;4199291;28;20507;-33
2022/01/07 11:36:33;;;;;;;5.63;1.05;;;;;;;;;;4194960;28;20053;-32
2022/01/07 11:38:34;;;;;;;3.65;0.80;;;;;;;;;;4182196;28;20048;-33
2022/01/07 11:40:38;;;;;;;2.78;0.70;;;;;;;;;;4182755;28;20373;-32
2022/01/07 11:42:45;;;;;;;2.88;0.80;;;;;;;;;;4182547;28;20112;-35
2022/01/07 11:44:46;;;;;;;2.53;0.52;;;;;;;;;;4189841;28;20048;-33
2022/01/07 11:46:47;;;;;;;1.00;0.70;;;;;;;;;;4194079;28;20075;-33
2022/01/07 11:48:48;;;;;;;3.58;0.82;;;;;;;;;;4188610;28;20362;-37
2022/01/07 11:50:56;;;;;;;1.77;0.77;;;;;;;;;;4185541;28;20045;-32
2022/01/07 11:53:02;;;;;;;2.47;0.70;;;;;;;;;;4182358;28;20099;-32
2022/01/07 11:55:20;;;;;;;1.35;0.63;;;;;;;;;;4182732;28;20037;-33
2022/01/07 11:57:22;;;;;;;0.70;0.50;;;;;;;;;;4184173;28;20059;-33
2022/01/07 11:59:25;;;;;;;1.52;0.80;;;;;;;;;;4197282;28;20090;-32
2022/01/07 12:01:27;;;;;;;0.80;0.55;;;;;;;;;;4190994;28;20351;-33
2022/01/07 12:03:42;;;;;;;3.58;0.70;;;;;;;;;;4182555;28;20060;-33
2022/01/07 12:05:44;;;;;;;1.85;0.77;;;;;;;;;;4182074;28;20052;-34
2022/01/07 12:07:48;;;;;;;1.27;0.50;;;;;;;;;;4180615;28;20049;-33
2022/01/07 12:09:49;;;;;;;2.22;0.55;;;;;;;;;;4183485;28;20052;-34
2022/01/07 12:11:52;;;;;;;1.35;0.60;;;;;;;;;;4182264;28;20048;-34
2022/01/07 12:13:53;;;;;;;2.17;0.60;;;;;;;;;;4182398;28;20477;-34
2022/01/07 12:15:55;;;;;;;1.38;0.68;;;;;;;;;;4182181;28;20052;-35
2022/01/07 12:18:06;;;;;;;2.70;0.70;;;;;;;;;;4181988;28;20057;-34
2022/01/07 12:20:22;;;;;;;1.30;0.50;;;;;;;;;;4182388;28;20079;-33
2022/01/07 12:22:25;;;;;;;1.92;0.65;;;;;;;;;;4180113;28;20460;-33